Nyheim — LG8446 — position and weather

sailwx.info

Track history (hours):
 
Tides and Currents Weather Stations Pressure Air Temp Water Temp Dewpoint Dewpoint Depression Visibility Wind Speed Wind Dir Waves Ship Positions

Nyheim

Last reported at 2017-Nov-16 09:06 UTC. Time now 2017-Dec-12 08:33 UTC.
Position N 68°52' E 016°40'.
Warning: this ship's position is 25 days out of date.

Length 13 m.

MMSI: 257653600.

Date/timePositionNaut miles runAvg speedWind from/ knotsBaromVisibWave heightAir tempDewpointWater temp
2017-Nov-16 09:06N 68°52' E 016°40'0 0.0
2017-Nov-16 09:00N 68°52' E 016°40'0 0.2
2017-Nov-16 08:30N 68°52' E 016°40'0 0.1
2017-Nov-16 08:00N 68°52' E 016°40'0 0.3
2017-Nov-16 07:29N 68°52' E 016°40'4 8.2
2017-Nov-16 07:00N 68°54' E 016°50'612.7
2017-Nov-16 06:30N 68°56' E 017°07'0 0.0
2017-Nov-16 06:00N 68°56' E 017°07'0 0.0
2017-Nov-16 05:30N 68°56' E 017°07'0 0.0
2017-Nov-16 05:00N 68°56' E 017°07'0 0.0
2017-Nov-16 04:30N 68°56' E 017°07'0 0.0
2017-Nov-16 04:00N 68°56' E 017°07'0 0.0
2017-Nov-16 03:30N 68°56' E 017°07'0 0.0
2017-Nov-16 03:00N 68°56' E 017°07'0 0.0
2017-Nov-16 02:30N 68°56' E 017°07'0 0.0
2017-Nov-16 02:00N 68°56' E 017°07'0 0.0
2017-Nov-16 01:30N 68°56' E 017°07'0 0.0
2017-Nov-16 01:00N 68°56' E 017°07'0 0.0
2017-Nov-16 00:30N 68°56' E 017°07'0 0.0
2017-Nov-16 00:01N 68°56' E 017°07'0 0.0
2017-Nov-15 23:30N 68°56' E 017°07'0 0.0
2017-Nov-15 23:01N 68°56' E 017°07'0 0.0
2017-Nov-15 22:30N 68°56' E 017°07'0 0.0
2017-Nov-15 22:00N 68°56' E 017°07'0 0.0
2017-Nov-15 21:30N 68°56' E 017°07'0 0.0
2017-Nov-15 21:00N 68°56' E 017°07'0 0.0
2017-Nov-15 20:30N 68°56' E 017°07'0 0.0
2017-Nov-15 20:00N 68°56' E 017°07'0 0.0
2017-Nov-15 19:30N 68°56' E 017°07'0 0.0
2017-Nov-15 19:00N 68°56' E 017°07'0 0.0
2017-Nov-15 18:30N 68°56' E 017°07'0 0.0
2017-Nov-15 18:00N 68°56' E 017°07'0 0.0
2017-Nov-15 17:30N 68°56' E 017°07'0 0.0
2017-Nov-15 17:00N 68°56' E 017°07'0 0.0
2017-Nov-15 16:30N 68°56' E 017°07'0 0.0
2017-Nov-15 16:00N 68°56' E 017°07'0 0.0
2017-Nov-15 15:29N 68°56' E 017°07'0 0.0
2017-Nov-15 15:00N 68°56' E 017°07'0 0.0
2017-Nov-15 14:31N 68°56' E 017°07'0 0.0
2017-Nov-15 14:00N 68°56' E 017°07'611.8
2017-Nov-15 13:30N 68°50' E 017°09'4 8.6
2017-Nov-15 13:00N 68°49' E 017°21'0 0.0
2017-Nov-15 12:30N 68°49' E 017°21'0 0.0
2017-Nov-15 12:00N 68°49' E 017°21'0 0.0
2017-Nov-15 11:30N 68°49' E 017°21'0 0.1
2017-Nov-15 11:00N 68°49' E 017°21'0 0.0
2017-Nov-15 10:30N 68°49' E 017°21'0 0.8
2017-Nov-15 10:00N 68°49' E 017°22'1 2.6
2017-Nov-15 09:30N 68°50' E 017°24'0 0.0
2017-Nov-15 09:00N 68°50' E 017°24'3 6.4
2017-Nov-15 08:30N 68°53' E 017°28'612.6
2017-Nov-15 08:00N 68°56' E 017°12'2 3.4
2017-Nov-15 07:31N 68°56' E 017°07'0 0.0
2017-Nov-15 06:59N 68°56' E 017°07'0 0.0
2017-Nov-15 06:30N 68°56' E 017°07'0 0.0
2017-Nov-15 06:00N 68°56' E 017°07'0 0.0
2017-Nov-15 05:30N 68°56' E 017°07'0 0.0
2017-Nov-15 05:00N 68°56' E 017°07'0 0.0
2017-Nov-15 04:30N 68°56' E 017°07'0 0.0
2017-Nov-15 04:00N 68°56' E 017°07'0 0.0
2017-Nov-15 03:30N 68°56' E 017°07'0 0.0
2017-Nov-15 03:00N 68°56' E 017°07'0 0.0
2017-Nov-15 02:30N 68°56' E 017°07'0 0.0
2017-Nov-15 02:00N 68°56' E 017°07'0 0.0
2017-Nov-15 01:30N 68°56' E 017°07'0 0.0
2017-Nov-15 01:00N 68°56' E 017°07'0 0.0
2017-Nov-15 00:30N 68°56' E 017°07'0 0.0
2017-Nov-15 00:00N 68°56' E 017°07'0 0.0
2017-Nov-14 23:30N 68°56' E 017°07'0 0.0
2017-Nov-14 23:00N 68°56' E 017°07'0 0.0
2017-Nov-14 22:30N 68°56' E 017°07'0 0.0
2017-Nov-14 22:00N 68°56' E 017°07'0 0.0
2017-Nov-14 21:30N 68°56' E 017°07'0 0.0
2017-Nov-14 21:00N 68°56' E 017°07'0 0.0
2017-Nov-14 20:30N 68°56' E 017°07'0 0.0
2017-Nov-14 20:01N 68°56' E 017°07'0 0.0
2017-Nov-14 19:30N 68°56' E 017°07'0 0.0
2017-Nov-14 19:00N 68°56' E 017°07'0 0.0
2017-Nov-14 18:30N 68°56' E 017°07'0 0.0
2017-Nov-14 18:00N 68°56' E 017°07'0 0.0
2017-Nov-14 17:30N 68°56' E 017°07'0 0.0
2017-Nov-14 17:00N 68°56' E 017°07'0 0.0
2017-Nov-14 16:30N 68°56' E 017°07'0 0.0
2017-Nov-14 16:00N 68°56' E 017°07'0 0.0
2017-Nov-14 15:30N 68°56' E 017°07'0 0.0
2017-Nov-14 15:00N 68°56' E 017°07'0 0.0
2017-Nov-14 14:30N 68°56' E 017°07'0 0.0
2017-Nov-14 14:00N 68°56' E 017°07'0 0.0
2017-Nov-14 13:30N 68°56' E 017°07'5 9.6
2017-Nov-14 13:00N 68°56' E 017°21'611.5
2017-Nov-14 12:30N 68°50' E 017°25'2 3.8
2017-Nov-14 12:00N 68°49' E 017°21'0 0.0
2017-Nov-14 11:29N 68°49' E 017°21'0 0.0
2017-Nov-14 11:00N 68°49' E 017°21'0 0.0
2017-Nov-14 10:30N 68°49' E 017°21'0 0.0
2017-Nov-14 10:00N 68°49' E 017°21'0 0.0
2017-Nov-14 09:30N 68°49' E 017°21'0 0.0
2017-Nov-14 09:00N 68°49' E 017°21'0 0.0
2017-Nov-14 08:30N 68°49' E 017°21'0 0.0
2017-Nov-14 08:00N 68°49' E 017°21'1 1.7
2017-Nov-14 07:30N 68°50' E 017°23'611.6
2017-Nov-14 07:00N 68°55' E 017°24'612.1
2017-Nov-14 06:30N 68°55' E 017°07'0 0.1
2017-Nov-14 06:00N 68°56' E 017°07'0 0.0
2017-Nov-14 05:30N 68°56' E 017°07'0 0.0
2017-Nov-14 05:00N 68°56' E 017°07'0 0.0
2017-Nov-14 04:30N 68°56' E 017°07'0 0.0
2017-Nov-14 03:59N 68°56' E 017°07'0 0.0
2017-Nov-14 03:30N 68°56' E 017°07'0 0.0
2017-Nov-14 03:00N 68°56' E 017°07'0 0.0
2017-Nov-14 02:30N 68°56' E 017°07'0 0.0
2017-Nov-14 02:00N 68°56' E 017°07'0 0.0
2017-Nov-14 01:30N 68°56' E 017°07'0 0.0
2017-Nov-14 01:00N 68°56' E 017°07'0 0.0
2017-Nov-14 00:30N 68°56' E 017°07'0 0.0
2017-Nov-14 00:01N 68°56' E 017°07'0 0.0
2017-Nov-13 23:30N 68°56' E 017°07'0 0.0
2017-Nov-13 23:00N 68°56' E 017°07'0 0.0
2017-Nov-13 22:30N 68°56' E 017°07'0 0.0
2017-Nov-13 22:00N 68°56' E 017°07'0 0.0
2017-Nov-13 02:00N 68°56' E 017°07'0 0.0
2017-Nov-13 01:30N 68°56' E 017°07'0 0.0
2017-Nov-13 00:59N 68°56' E 017°07'0 0.0
2017-Nov-13 00:31N 68°56' E 017°07'0 0.0
2017-Nov-13 00:01N 68°56' E 017°07'0 0.0
2017-Nov-12 23:30N 68°56' E 017°07'0 0.0
2017-Nov-12 23:01N 68°56' E 017°07'0 0.0
2017-Nov-12 22:31N 68°56' E 017°07'0 0.0
2017-Nov-12 22:00N 68°56' E 017°07'0 0.0
2017-Nov-12 21:30N 68°56' E 017°07'0 0.0
2017-Nov-12 21:00N 68°56' E 017°07'0 0.0
2017-Nov-12 20:29N 68°56' E 017°07'0 0.0
2017-Nov-12 20:01N 68°56' E 017°07'0 0.0
2017-Nov-12 19:30N 68°56' E 017°07'0 0.0
2017-Nov-12 19:00N 68°56' E 017°07'0 0.0
2017-Nov-12 18:30N 68°56' E 017°07'0 0.0
2017-Nov-12 18:00N 68°56' E 017°07'0 0.0
2017-Nov-12 17:30N 68°56' E 017°07'0 0.0
2017-Nov-12 17:00N 68°56' E 017°07'0 0.0
2017-Nov-12 16:30N 68°56' E 017°07'0 0.0
2017-Nov-12 16:00N 68°56' E 017°07'0 0.0
2017-Nov-12 15:30N 68°56' E 017°07'0 0.0
2017-Nov-12 15:00N 68°56' E 017°07'0 0.0
2017-Nov-12 14:30N 68°56' E 017°07'0 0.0
2017-Nov-12 14:00N 68°56' E 017°07'0 0.0
2017-Nov-12 13:30N 68°56' E 017°07'0 0.0
2017-Nov-12 13:00N 68°56' E 017°07'0 0.0
2017-Nov-12 12:30N 68°56' E 017°07'0 0.0
2017-Nov-12 12:00N 68°56' E 017°07'0 0.0
2017-Nov-12 11:30N 68°56' E 017°07'0 0.0
2017-Nov-12 11:00N 68°56' E 017°07'0 0.0
2017-Nov-12 10:30N 68°56' E 017°07'0 0.0
2017-Nov-12 10:00N 68°56' E 017°07'0 0.0
2017-Nov-12 09:30N 68°56' E 017°07'0 0.0
2017-Nov-12 09:00N 68°56' E 017°07'0 0.0
2017-Nov-12 08:29N 68°56' E 017°07'0 0.0
2017-Nov-12 08:00N 68°56' E 017°07'0 0.0
2017-Nov-12 07:31N 68°56' E 017°07'0 0.0
2017-Nov-12 07:00N 68°56' E 017°07'0 0.0
2017-Nov-12 06:29N 68°56' E 017°07'0 0.0
2017-Nov-12 06:00N 68°56' E 017°07'0 0.0
2017-Nov-12 05:30N 68°56' E 017°07'0 0.0
2017-Nov-12 05:00N 68°56' E 017°07'0 0.0
2017-Nov-12 04:30N 68°56' E 017°07'0 0.0
2017-Nov-12 04:00N 68°56' E 017°07'0 0.0
2017-Nov-12 03:30N 68°56' E 017°07'0 0.0
2017-Nov-12 03:00N 68°56' E 017°07'0 0.0
2017-Nov-12 02:30N 68°56' E 017°07'0 0.0
2017-Nov-12 02:00N 68°56' E 017°07'0 0.0
2017-Nov-12 01:30N 68°56' E 017°07'0 0.0
2017-Nov-12 01:01N 68°56' E 017°07'0 0.0
2017-Nov-12 00:30N 68°56' E 017°07'0 0.0
2017-Nov-12 00:00N 68°56' E 017°07'0 0.0
2017-Nov-11 23:30N 68°56' E 017°07'0 0.0
2017-Nov-11 23:00N 68°56' E 017°07'0 0.0
2017-Nov-11 22:30N 68°56' E 017°07'0 0.0
2017-Nov-11 22:00N 68°56' E 017°07'0 0.0
2017-Nov-11 21:30N 68°56' E 017°07'0 0.0
2017-Nov-11 21:00N 68°56' E 017°07'0 0.0
2017-Nov-11 20:30N 68°56' E 017°07'0 0.0
2017-Nov-11 20:00N 68°56' E 017°07'0 0.0
2017-Nov-11 19:30N 68°56' E 017°07'0 0.0
2017-Nov-11 19:00N 68°56' E 017°07'0 0.0
2017-Nov-11 18:30N 68°56' E 017°07'0 0.0
2017-Nov-11 18:00N 68°56' E 017°07'0 0.0
2017-Nov-11 17:30N 68°56' E 017°07'0 0.0
2017-Nov-11 17:00N 68°56' E 017°07'0 0.0
2017-Nov-11 16:30N 68°56' E 017°07'0 0.0
2017-Nov-11 16:00N 68°56' E 017°07'0 0.0
2017-Nov-11 15:30N 68°56' E 017°07'0 0.0
2017-Nov-11 15:00N 68°56' E 017°07'0 0.0
2017-Nov-11 14:30N 68°56' E 017°07'0 0.0
2017-Nov-11 14:00N 68°56' E 017°07'0 0.0
2017-Nov-11 13:30N 68°56' E 017°07'0 0.0
2017-Nov-11 13:00N 68°56' E 017°07'0 0.0
2017-Nov-11 12:29N 68°56' E 017°07'0 0.0
2017-Nov-11 12:00N 68°56' E 017°07'0 0.0
2017-Nov-11 11:30N 68°56' E 017°07'0 0.0
2017-Nov-11 11:00N 68°56' E 017°07'0 0.0
2017-Nov-11 10:30N 68°56' E 017°07'0 0.0
2017-Nov-11 10:00N 68°56' E 017°07'0 0.0
2017-Nov-11 09:30N 68°56' E 017°07'0 0.0
2017-Nov-11 09:01N 68°56' E 017°07'0 0.0
2017-Nov-11 08:30N 68°56' E 017°07'0 0.0
2017-Nov-11 08:00N 68°56' E 017°07'0 0.0
2017-Nov-11 07:30N 68°56' E 017°07'0 0.0
2017-Nov-11 07:00N 68°56' E 017°07'0 0.0
2017-Nov-11 06:30N 68°56' E 017°07'0 0.0
2017-Nov-11 06:00N 68°56' E 017°07'0 0.0
2017-Nov-11 05:31N 68°56' E 017°07'0 0.0
2017-Nov-11 05:00N 68°56' E 017°07'0 0.0
2017-Nov-11 04:30N 68°56' E 017°07'0 0.0
2017-Nov-11 04:00N 68°56' E 017°07'0 0.0
2017-Nov-11 03:30N 68°56' E 017°07'0 0.0
2017-Nov-11 03:00N 68°56' E 017°07'0 0.0
2017-Nov-11 02:30N 68°56' E 017°07'0 0.0
2017-Nov-11 02:00N 68°56' E 017°07'0 0.0
2017-Nov-11 01:30N 68°56' E 017°07'0 0.0
2017-Nov-11 01:00N 68°56' E 017°07'0 0.0
2017-Nov-11 00:30N 68°56' E 017°07'0 0.0
2017-Nov-11 00:00N 68°56' E 017°07'0 0.0
2017-Nov-10 23:30N 68°56' E 017°07'0 0.0
2017-Nov-10 23:00N 68°56' E 017°07'0 0.0
2017-Nov-10 22:31N 68°56' E 017°07'0 0.0
2017-Nov-10 22:00N 68°56' E 017°07'0 0.0
2017-Nov-10 21:30N 68°56' E 017°07'0 0.0
2017-Nov-10 21:00N 68°56' E 017°07'0 0.0
2017-Nov-10 20:30N 68°56' E 017°07'0 0.0
2017-Nov-10 20:00N 68°56' E 017°07'0 0.0
2017-Nov-10 19:31N 68°56' E 017°07'0 0.0
2017-Nov-10 18:59N 68°56' E 017°07'0 0.0
2017-Nov-10 18:30N 68°56' E 017°07'0 0.0
2017-Nov-10 18:00N 68°56' E 017°07'0 0.0
2017-Nov-10 17:30N 68°56' E 017°07'0 0.0
2017-Nov-10 17:00N 68°56' E 017°07'0 0.0
2017-Nov-10 16:30N 68°56' E 017°07'0 0.0
2017-Nov-10 16:00N 68°56' E 017°07'3 6.3
2017-Nov-10 15:30N 68°52' E 017°06'713.4
2017-Nov-10 15:00N 68°46' E 017°13'6 8.7
2017-Nov-10 14:21N 68°43' E 017°26'2 5.5
2017-Nov-10 14:00N 68°44' E 017°21'0 0.0
2017-Nov-10 13:29N 68°44' E 017°21'0 0.0
2017-Nov-10 13:00N 68°44' E 017°21'2 2.3
2017-Nov-10 12:07N 68°43' E 017°26'1 9.6
2017-Nov-10 12:00N 68°44' E 017°24'1 2.3
2017-Nov-10 11:28N 68°44' E 017°21'0 0.0
2017-Nov-10 11:00N 68°44' E 017°21'0 0.0
2017-Nov-10 10:30N 68°44' E 017°21'0 0.1
2017-Nov-10 10:00N 68°44' E 017°21'0 0.0
2017-Nov-10 09:30N 68°44' E 017°21'0 0.0
2017-Nov-10 09:00N 68°44' E 017°21'0 0.0
2017-Nov-10 08:30N 68°44' E 017°21'2 3.8
2017-Nov-10 07:59N 68°43' E 017°26'1 3.1
2017-Nov-10 07:30N 68°44' E 017°23'611.9
2017-Nov-10 07:00N 68°48' E 017°11'612.7
2017-Nov-10 06:30N 68°54' E 017°06'2 3.4
2017-Nov-10 06:00N 68°55' E 017°07'0 0.1
2017-Nov-10 05:30N 68°56' E 017°07'0 0.0
2017-Nov-10 05:00N 68°56' E 017°07'0 0.0
2017-Nov-10 04:30N 68°56' E 017°07'0 0.0
2017-Nov-10 04:00N 68°56' E 017°07'0 0.0
2017-Nov-10 03:30N 68°56' E 017°07'0 0.0
2017-Nov-10 03:00N 68°56' E 017°07'0 0.0
2017-Nov-10 02:30N 68°56' E 017°07'0 0.0
2017-Nov-10 02:00N 68°56' E 017°07'0 0.0
2017-Nov-10 01:29N 68°56' E 017°07'0 0.0
2017-Nov-10 01:00N 68°56' E 017°07'0 0.0
2017-Nov-10 00:30N 68°56' E 017°07'0 0.0
2017-Nov-10 00:00N 68°56' E 017°07'0 0.0
2017-Nov-09 23:30N 68°56' E 017°07'0 0.0
2017-Nov-09 23:00N 68°56' E 017°07'0 0.0
2017-Nov-09 22:29N 68°56' E 017°07'0 0.0
2017-Nov-09 22:00N 68°56' E 017°07'0 0.0
2017-Nov-09 21:30N 68°56' E 017°07'0 0.0
2017-Nov-09 20:59N 68°56' E 017°07'0 0.0
2017-Nov-09 20:30N 68°56' E 017°07'0 0.0
2017-Nov-09 20:00N 68°56' E 017°07'0 0.0
2017-Nov-09 19:29N 68°56' E 017°07'0 0.0
2017-Nov-09 19:00N 68°56' E 017°07'0 0.0
2017-Nov-09 18:30N 68°56' E 017°07'0 0.0
2017-Nov-09 18:00N 68°56' E 017°07'0 0.0
2017-Nov-09 17:30N 68°56' E 017°07'0 0.0
2017-Nov-09 17:00N 68°56' E 017°07'0 0.0
2017-Nov-09 16:29N 68°56' E 017°07'0 0.0
2017-Nov-09 16:00N 68°56' E 017°07'3 6.6
2017-Nov-09 15:30N 68°52' E 017°07'714.5
2017-Nov-09 15:00N 68°45' E 017°14'5 5.9
2017-Nov-09 14:09N 68°43' E 017°26'1 8.3
2017-Nov-09 13:59N 68°44' E 017°23'1 1.9
2017-Nov-09 13:30N 68°44' E 017°21'0 0.0
2017-Nov-09 13:00N 68°44' E 017°21'0 0.0
2017-Nov-09 12:30N 68°44' E 017°21'0 0.0
2017-Nov-09 11:59N 68°44' E 017°21'0 0.0
2017-Nov-09 11:30N 68°44' E 017°21'0 0.3
2017-Nov-09 11:00N 68°44' E 017°20'0 0.0
2017-Nov-09 10:30N 68°44' E 017°20'0 0.2
2017-Nov-09 10:00N 68°44' E 017°21'0 0.0
2017-Nov-09 09:30N 68°44' E 017°21'0 0.0
2017-Nov-09 09:00N 68°44' E 017°21'0 0.2
2017-Nov-09 08:30N 68°44' E 017°20'0 0.0
2017-Nov-09 07:59N 68°44' E 017°20'0 0.1
2017-Nov-09 07:29N 68°44' E 017°20'612.0
2017-Nov-09 07:00N 68°48' E 017°10'612.3
2017-Nov-09 06:29N 68°54' E 017°05'2 3.2
2017-Nov-09 06:00N 68°56' E 017°07'0 0.0
2017-Nov-09 05:30N 68°56' E 017°07'0 0.0
2017-Nov-09 04:59N 68°56' E 017°07'0 0.0
2017-Nov-09 04:30N 68°56' E 017°07'0 0.0
2017-Nov-09 04:00N 68°56' E 017°07'0 0.0
2017-Nov-09 03:30N 68°56' E 017°07'0 0.0
2017-Nov-09 02:59N 68°56' E 017°07'0 0.0
2017-Nov-09 02:30N 68°56' E 017°07'0 0.0
2017-Nov-09 02:00N 68°56' E 017°07'0 0.0
2017-Nov-09 01:29N 68°56' E 017°07'0 0.0
2017-Nov-09 01:00N 68°56' E 017°07'0 0.0
2017-Nov-09 00:30N 68°56' E 017°07'0 0.0
2017-Nov-09 00:00N 68°56' E 017°07'0 0.0
2017-Nov-08 23:30N 68°56' E 017°07'0 0.0
2017-Nov-08 23:00N 68°56' E 017°07'0 0.0
2017-Nov-08 22:30N 68°56' E 017°07'0 0.0
2017-Nov-08 22:00N 68°56' E 017°07'0 0.0
2017-Nov-08 21:30N 68°56' E 017°07'0 0.0
2017-Nov-08 21:00N 68°56' E 017°07'0 0.0
2017-Nov-08 20:30N 68°56' E 017°07'0 0.0
2017-Nov-08 19:59N 68°56' E 017°07'0 0.0
2017-Nov-08 19:30N 68°56' E 017°07'0 0.0
2017-Nov-08 19:00N 68°56' E 017°07'0 0.0
2017-Nov-08 18:30N 68°56' E 017°07'0 0.0
2017-Nov-08 18:00N 68°56' E 017°07'0 0.0
2017-Nov-08 17:30N 68°56' E 017°07'0 0.0
2017-Nov-08 17:00N 68°56' E 017°07'0 0.0
2017-Nov-08 16:29N 68°56' E 017°07'0 0.0
2017-Nov-08 16:00N 68°56' E 017°07'0 0.0
2017-Nov-08 15:29N 68°56' E 017°07'2 3.2
2017-Nov-08 15:00N 68°54' E 017°05'713.9
2017-Nov-08 14:30N 68°47' E 017°11'5 7.4
2017-Nov-08 13:49N 68°44' E 017°21'0 0.0
2017-Nov-08 13:30N 68°44' E 017°21'0 0.0
2017-Nov-08 12:36N 68°44' E 017°21'0 0.0
2017-Nov-08 12:30N 68°44' E 017°21'0 0.0
2017-Nov-08 11:49N 68°44' E 017°21'0 0.0
2017-Nov-08 09:04N 68°44' E 017°21'0 0.0
2017-Nov-08 09:00N 68°44' E 017°21'0 0.0
2017-Nov-08 08:30N 68°44' E 017°21'0 0.6
2017-Nov-08 08:00N 68°43' E 017°20'0 0.0
2017-Nov-08 07:30N 68°43' E 017°20'510.1
2017-Nov-08 07:00N 68°47' E 017°11'612.5
2017-Nov-08 06:30N 68°53' E 017°06'2 4.9
2017-Nov-08 06:00N 68°56' E 017°07'0 0.0
2017-Nov-08 05:30N 68°56' E 017°07'0 0.0
2017-Nov-08 05:00N 68°56' E 017°07'0 0.0
2017-Nov-08 04:30N 68°56' E 017°07'0 0.0
2017-Nov-08 04:00N 68°56' E 017°07'0 0.0
2017-Nov-08 03:30N 68°56' E 017°07'0 0.0
2017-Nov-08 03:00N 68°56' E 017°07'0 0.0
2017-Nov-08 02:30N 68°56' E 017°07'0 0.0
2017-Nov-08 02:00N 68°56' E 017°07'0 0.0
2017-Nov-08 01:30N 68°56' E 017°07'0 0.0
2017-Nov-08 01:00N 68°56' E 017°07'0 0.0
2017-Nov-08 00:30N 68°56' E 017°07'0 0.0
2017-Nov-08 00:00N 68°56' E 017°07'0 0.0
2017-Nov-07 22:40N 68°56' E 017°07'0 0.0
2017-Nov-07 22:30N 68°56' E 017°07'0 0.0
2017-Nov-07 22:00N 68°56' E 017°07'0 0.0
2017-Nov-07 21:30N 68°56' E 017°07'0 0.0
2017-Nov-07 21:00N 68°56' E 017°07'0 0.0
2017-Nov-07 20:30N 68°56' E 017°07'0 0.0
2017-Nov-07 19:59N 68°56' E 017°07'0 0.0
2017-Nov-07 19:29N 68°56' E 017°07'0 0.0
2017-Nov-07 19:00N 68°56' E 017°07'0 0.0
2017-Nov-07 18:30N 68°56' E 017°07'0 0.0
2017-Nov-07 18:00N 68°56' E 017°07'0 0.0
2017-Nov-07 17:30N 68°56' E 017°07'0 0.0
2017-Nov-07 17:00N 68°56' E 017°07'4 8.6
2017-Nov-07 16:29N 68°51' E 017°07'613.1
2017-Nov-07 16:00N 68°45' E 017°15'3 5.5
2017-Nov-07 15:30N 68°44' E 017°20'0 0.3
2017-Nov-07 14:59N 68°44' E 017°21'0 0.0
2017-Nov-07 14:30N 68°44' E 017°21'0 0.0
2017-Nov-07 14:00N 68°44' E 017°21'0 0.0
2017-Nov-07 13:29N 68°44' E 017°21'0 0.0
2017-Nov-07 13:00N 68°44' E 017°21'0 0.2
2017-Nov-07 12:30N 68°44' E 017°21'611.2
2017-Nov-07 12:00N 68°48' E 017°10'612.2
2017-Nov-07 11:30N 68°54' E 017°06'2 4.1
2017-Nov-07 11:00N 68°56' E 017°07'0 0.0
2017-Nov-07 10:29N 68°56' E 017°07'611.2
2017-Nov-07 10:00N 68°53' E 016°54'714.9
2017-Nov-07 09:30N 68°49' E 016°36'2 4.6
2017-Nov-07 09:00N 68°47' E 016°33'0 0.0
2017-Nov-07 08:30N 68°47' E 016°33'0 0.0
2017-Nov-07 08:00N 68°47' E 016°33'0 0.0
2017-Nov-07 07:30N 68°47' E 016°33'0 0.0
2017-Nov-07 07:00N 68°47' E 016°33'0 0.0
2017-Nov-07 06:30N 68°47' E 016°33'0 0.0
2017-Nov-07 06:00N 68°47' E 016°33'0 0.0
2017-Nov-07 05:30N 68°47' E 016°33'0 0.0
2017-Nov-07 05:00N 68°47' E 016°33'0 0.0
2017-Nov-07 04:30N 68°47' E 016°33'0 0.0
2017-Nov-07 04:00N 68°47' E 016°33'0 0.0
2017-Nov-07 03:29N 68°47' E 016°33'0 0.0
2017-Nov-07 03:00N 68°47' E 016°33'0 0.0
2017-Nov-07 02:30N 68°47' E 016°33'0 0.0
2017-Nov-07 02:00N 68°47' E 016°33'0 0.0
2017-Nov-07 01:30N 68°47' E 016°33'0 0.0
2017-Nov-07 01:00N 68°47' E 016°33'0 0.0
2017-Nov-07 00:30N 68°47' E 016°33'0 0.0
2017-Nov-07 00:00N 68°47' E 016°33'0 0.0
2017-Nov-06 23:30N 68°47' E 016°33'0 0.0
2017-Nov-06 23:00N 68°47' E 016°33'0 0.0
2017-Nov-06 22:30N 68°47' E 016°33'0 0.0
2017-Nov-06 22:00N 68°47' E 016°33'0 0.0
2017-Nov-06 21:30N 68°47' E 016°33'0 0.0
2017-Nov-06 21:00N 68°47' E 016°33'0 0.0
2017-Nov-06 20:30N 68°47' E 016°33'  
Track history (hours):
 
Tides and Currents Weather Stations Pressure Air Temp Water Temp Dewpoint Dewpoint Depression Visibility Wind Speed Wind Dir Waves Ship Positions

Nyheim

Last reported at 2017-Nov-16 09:06 UTC. Time now 2017-Dec-12 08:33 UTC.
Position N 68°52' E 016°40'.
Warning: this ship's position is 25 days out of date.

Length 13 m.

MMSI: 257653600.

Date/timePositionNaut miles runAvg speedWind from/ knotsBaromVisibWave heightAir tempDewpointWater temp
2017-Nov-16 09:06N 68°52' E 016°40'0 0.0
2017-Nov-16 09:00N 68°52' E 016°40'0 0.2
2017-Nov-16 08:30N 68°52' E 016°40'0 0.1
2017-Nov-16 08:00N 68°52' E 016°40'0 0.3
2017-Nov-16 07:29N 68°52' E 016°40'4 8.2
2017-Nov-16 07:00N 68°54' E 016°50'612.7
2017-Nov-16 06:30N 68°56' E 017°07'0 0.0
2017-Nov-16 06:00N 68°56' E 017°07'0 0.0
2017-Nov-16 05:30N 68°56' E 017°07'0 0.0
2017-Nov-16 05:00N 68°56' E 017°07'0 0.0
2017-Nov-16 04:30N 68°56' E 017°07'0 0.0
2017-Nov-16 04:00N 68°56' E 017°07'0 0.0
2017-Nov-16 03:30N 68°56' E 017°07'0 0.0
2017-Nov-16 03:00N 68°56' E 017°07'0 0.0
2017-Nov-16 02:30N 68°56' E 017°07'0 0.0
2017-Nov-16 02:00N 68°56' E 017°07'0 0.0
2017-Nov-16 01:30N 68°56' E 017°07'0 0.0
2017-Nov-16 01:00N 68°56' E 017°07'0 0.0
2017-Nov-16 00:30N 68°56' E 017°07'0 0.0
2017-Nov-16 00:01N 68°56' E 017°07'0 0.0
2017-Nov-15 23:30N 68°56' E 017°07'0 0.0
2017-Nov-15 23:01N 68°56' E 017°07'0 0.0
2017-Nov-15 22:30N 68°56' E 017°07'0 0.0
2017-Nov-15 22:00N 68°56' E 017°07'0 0.0
2017-Nov-15 21:30N 68°56' E 017°07'0 0.0
2017-Nov-15 21:00N 68°56' E 017°07'0 0.0
2017-Nov-15 20:30N 68°56' E 017°07'0 0.0
2017-Nov-15 20:00N 68°56' E 017°07'0 0.0
2017-Nov-15 19:30N 68°56' E 017°07'0 0.0
2017-Nov-15 19:00N 68°56' E 017°07'0 0.0
2017-Nov-15 18:30N 68°56' E 017°07'0 0.0
2017-Nov-15 18:00N 68°56' E 017°07'0 0.0
2017-Nov-15 17:30N 68°56' E 017°07'0 0.0
2017-Nov-15 17:00N 68°56' E 017°07'0 0.0
2017-Nov-15 16:30N 68°56' E 017°07'0 0.0
2017-Nov-15 16:00N 68°56' E 017°07'0 0.0
2017-Nov-15 15:29N 68°56' E 017°07'0 0.0
2017-Nov-15 15:00N 68°56' E 017°07'0 0.0
2017-Nov-15 14:31N 68°56' E 017°07'0 0.0
2017-Nov-15 14:00N 68°56' E 017°07'611.8
2017-Nov-15 13:30N 68°50' E 017°09'4 8.6
2017-Nov-15 13:00N 68°49' E 017°21'0 0.0
2017-Nov-15 12:30N 68°49' E 017°21'0 0.0
2017-Nov-15 12:00N 68°49' E 017°21'0 0.0
2017-Nov-15 11:30N 68°49' E 017°21'0 0.1
2017-Nov-15 11:00N 68°49' E 017°21'0 0.0
2017-Nov-15 10:30N 68°49' E 017°21'0 0.8
2017-Nov-15 10:00N 68°49' E 017°22'1 2.6
2017-Nov-15 09:30N 68°50' E 017°24'0 0.0
2017-Nov-15 09:00N 68°50' E 017°24'3 6.4
2017-Nov-15 08:30N 68°53' E 017°28'612.6
2017-Nov-15 08:00N 68°56' E 017°12'2 3.4
2017-Nov-15 07:31N 68°56' E 017°07'0 0.0
2017-Nov-15 06:59N 68°56' E 017°07'0 0.0
2017-Nov-15 06:30N 68°56' E 017°07'0 0.0
2017-Nov-15 06:00N 68°56' E 017°07'0 0.0
2017-Nov-15 05:30N 68°56' E 017°07'0 0.0
2017-Nov-15 05:00N 68°56' E 017°07'0 0.0
2017-Nov-15 04:30N 68°56' E 017°07'0 0.0
2017-Nov-15 04:00N 68°56' E 017°07'0 0.0
2017-Nov-15 03:30N 68°56' E 017°07'0 0.0
2017-Nov-15 03:00N 68°56' E 017°07'0 0.0
2017-Nov-15 02:30N 68°56' E 017°07'0 0.0
2017-Nov-15 02:00N 68°56' E 017°07'0 0.0
2017-Nov-15 01:30N 68°56' E 017°07'0 0.0
2017-Nov-15 01:00N 68°56' E 017°07'0 0.0
2017-Nov-15 00:30N 68°56' E 017°07'0 0.0
2017-Nov-15 00:00N 68°56' E 017°07'0 0.0
2017-Nov-14 23:30N 68°56' E 017°07'0 0.0
2017-Nov-14 23:00N 68°56' E 017°07'0 0.0
2017-Nov-14 22:30N 68°56' E 017°07'0 0.0
2017-Nov-14 22:00N 68°56' E 017°07'0 0.0
2017-Nov-14 21:30N 68°56' E 017°07'0 0.0
2017-Nov-14 21:00N 68°56' E 017°07'0 0.0
2017-Nov-14 20:30N 68°56' E 017°07'0 0.0
2017-Nov-14 20:01N 68°56' E 017°07'0 0.0
2017-Nov-14 19:30N 68°56' E 017°07'0 0.0
2017-Nov-14 19:00N 68°56' E 017°07'0 0.0
2017-Nov-14 18:30N 68°56' E 017°07'0 0.0
2017-Nov-14 18:00N 68°56' E 017°07'0 0.0
2017-Nov-14 17:30N 68°56' E 017°07'0 0.0
2017-Nov-14 17:00N 68°56' E 017°07'0 0.0
2017-Nov-14 16:30N 68°56' E 017°07'0 0.0
2017-Nov-14 16:00N 68°56' E 017°07'0 0.0
2017-Nov-14 15:30N 68°56' E 017°07'0 0.0
2017-Nov-14 15:00N 68°56' E 017°07'0 0.0
2017-Nov-14 14:30N 68°56' E 017°07'0 0.0
2017-Nov-14 14:00N 68°56' E 017°07'0 0.0
2017-Nov-14 13:30N 68°56' E 017°07'5 9.6
2017-Nov-14 13:00N 68°56' E 017°21'611.5
2017-Nov-14 12:30N 68°50' E 017°25'2 3.8
2017-Nov-14 12:00N 68°49' E 017°21'0 0.0
2017-Nov-14 11:29N 68°49' E 017°21'0 0.0
2017-Nov-14 11:00N 68°49' E 017°21'0 0.0
2017-Nov-14 10:30N 68°49' E 017°21'0 0.0
2017-Nov-14 10:00N 68°49' E 017°21'0 0.0
2017-Nov-14 09:30N 68°49' E 017°21'0 0.0
2017-Nov-14 09:00N 68°49' E 017°21'0 0.0
2017-Nov-14 08:30N 68°49' E 017°21'0 0.0
2017-Nov-14 08:00N 68°49' E 017°21'1 1.7
2017-Nov-14 07:30N 68°50' E 017°23'611.6
2017-Nov-14 07:00N 68°55' E 017°24'612.1
2017-Nov-14 06:30N 68°55' E 017°07'0 0.1
2017-Nov-14 06:00N 68°56' E 017°07'0 0.0
2017-Nov-14 05:30N 68°56' E 017°07'0 0.0
2017-Nov-14 05:00N 68°56' E 017°07'0 0.0
2017-Nov-14 04:30N 68°56' E 017°07'0 0.0
2017-Nov-14 03:59N 68°56' E 017°07'0 0.0
2017-Nov-14 03:30N 68°56' E 017°07'0 0.0
2017-Nov-14 03:00N 68°56' E 017°07'0 0.0
2017-Nov-14 02:30N 68°56' E 017°07'0 0.0
2017-Nov-14 02:00N 68°56' E 017°07'0 0.0
2017-Nov-14 01:30N 68°56' E 017°07'0 0.0
2017-Nov-14 01:00N 68°56' E 017°07'0 0.0
2017-Nov-14 00:30N 68°56' E 017°07'0 0.0
2017-Nov-14 00:01N 68°56' E 017°07'0 0.0
2017-Nov-13 23:30N 68°56' E 017°07'0 0.0
2017-Nov-13 23:00N 68°56' E 017°07'0 0.0
2017-Nov-13 22:30N 68°56' E 017°07'0 0.0
2017-Nov-13 22:00N 68°56' E 017°07'0 0.0
2017-Nov-13 02:00N 68°56' E 017°07'0 0.0
2017-Nov-13 01:30N 68°56' E 017°07'0 0.0
2017-Nov-13 00:59N 68°56' E 017°07'0 0.0
2017-Nov-13 00:31N 68°56' E 017°07'0 0.0
2017-Nov-13 00:01N 68°56' E 017°07'0 0.0
2017-Nov-12 23:30N 68°56' E 017°07'0 0.0
2017-Nov-12 23:01N 68°56' E 017°07'0 0.0
2017-Nov-12 22:31N 68°56' E 017°07'0 0.0
2017-Nov-12 22:00N 68°56' E 017°07'0 0.0
2017-Nov-12 21:30N 68°56' E 017°07'0 0.0
2017-Nov-12 21:00N 68°56' E 017°07'0 0.0
2017-Nov-12 20:29N 68°56' E 017°07'0 0.0
2017-Nov-12 20:01N 68°56' E 017°07'0 0.0
2017-Nov-12 19:30N 68°56' E 017°07'0 0.0
2017-Nov-12 19:00N 68°56' E 017°07'0 0.0
2017-Nov-12 18:30N 68°56' E 017°07'0 0.0
2017-Nov-12 18:00N 68°56' E 017°07'0 0.0
2017-Nov-12 17:30N 68°56' E 017°07'0 0.0
2017-Nov-12 17:00N 68°56' E 017°07'0 0.0
2017-Nov-12 16:30N 68°56' E 017°07'0 0.0
2017-Nov-12 16:00N 68°56' E 017°07'0 0.0
2017-Nov-12 15:30N 68°56' E 017°07'0 0.0
2017-Nov-12 15:00N 68°56' E 017°07'0 0.0
2017-Nov-12 14:30N 68°56' E 017°07'0 0.0
2017-Nov-12 14:00N 68°56' E 017°07'0 0.0
2017-Nov-12 13:30N 68°56' E 017°07'0 0.0
2017-Nov-12 13:00N 68°56' E 017°07'0 0.0
2017-Nov-12 12:30N 68°56' E 017°07'0 0.0
2017-Nov-12 12:00N 68°56' E 017°07'0 0.0
2017-Nov-12 11:30N 68°56' E 017°07'0 0.0
2017-Nov-12 11:00N 68°56' E 017°07'0 0.0
2017-Nov-12 10:30N 68°56' E 017°07'0 0.0
2017-Nov-12 10:00N 68°56' E 017°07'0 0.0
2017-Nov-12 09:30N 68°56' E 017°07'0 0.0
2017-Nov-12 09:00N 68°56' E 017°07'0 0.0
2017-Nov-12 08:29N 68°56' E 017°07'0 0.0
2017-Nov-12 08:00N 68°56' E 017°07'0 0.0
2017-Nov-12 07:31N 68°56' E 017°07'0 0.0
2017-Nov-12 07:00N 68°56' E 017°07'0 0.0
2017-Nov-12 06:29N 68°56' E 017°07'0 0.0
2017-Nov-12 06:00N 68°56' E 017°07'0 0.0
2017-Nov-12 05:30N 68°56' E 017°07'0 0.0
2017-Nov-12 05:00N 68°56' E 017°07'0 0.0
2017-Nov-12 04:30N 68°56' E 017°07'0 0.0
2017-Nov-12 04:00N 68°56' E 017°07'0 0.0
2017-Nov-12 03:30N 68°56' E 017°07'0 0.0
2017-Nov-12 03:00N 68°56' E 017°07'0 0.0
2017-Nov-12 02:30N 68°56' E 017°07'0 0.0
2017-Nov-12 02:00N 68°56' E 017°07'0 0.0
2017-Nov-12 01:30N 68°56' E 017°07'0 0.0
2017-Nov-12 01:01N 68°56' E 017°07'0 0.0
2017-Nov-12 00:30N 68°56' E 017°07'0 0.0
2017-Nov-12 00:00N 68°56' E 017°07'0 0.0
2017-Nov-11 23:30N 68°56' E 017°07'0 0.0
2017-Nov-11 23:00N 68°56' E 017°07'0 0.0
2017-Nov-11 22:30N 68°56' E 017°07'0 0.0
2017-Nov-11 22:00N 68°56' E 017°07'0 0.0
2017-Nov-11 21:30N 68°56' E 017°07'0 0.0
2017-Nov-11 21:00N 68°56' E 017°07'0 0.0
2017-Nov-11 20:30N 68°56' E 017°07'0 0.0
2017-Nov-11 20:00N 68°56' E 017°07'0 0.0
2017-Nov-11 19:30N 68°56' E 017°07'0 0.0
2017-Nov-11 19:00N 68°56' E 017°07'0 0.0
2017-Nov-11 18:30N 68°56' E 017°07'0 0.0
2017-Nov-11 18:00N 68°56' E 017°07'0 0.0
2017-Nov-11 17:30N 68°56' E 017°07'0 0.0
2017-Nov-11 17:00N 68°56' E 017°07'0 0.0
2017-Nov-11 16:30N 68°56' E 017°07'0 0.0
2017-Nov-11 16:00N 68°56' E 017°07'0 0.0
2017-Nov-11 15:30N 68°56' E 017°07'0 0.0
2017-Nov-11 15:00N 68°56' E 017°07'0 0.0
2017-Nov-11 14:30N 68°56' E 017°07'0 0.0
2017-Nov-11 14:00N 68°56' E 017°07'0 0.0
2017-Nov-11 13:30N 68°56' E 017°07'0 0.0
2017-Nov-11 13:00N 68°56' E 017°07'0 0.0
2017-Nov-11 12:29N 68°56' E 017°07'0 0.0
2017-Nov-11 12:00N 68°56' E 017°07'0 0.0
2017-Nov-11 11:30N 68°56' E 017°07'0 0.0
2017-Nov-11 11:00N 68°56' E 017°07'0 0.0
2017-Nov-11 10:30N 68°56' E 017°07'0 0.0
2017-Nov-11 10:00N 68°56' E 017°07'0 0.0
2017-Nov-11 09:30N 68°56' E 017°07'0 0.0
2017-Nov-11 09:01N 68°56' E 017°07'0 0.0
2017-Nov-11 08:30N 68°56' E 017°07'0 0.0
2017-Nov-11 08:00N 68°56' E 017°07'0 0.0
2017-Nov-11 07:30N 68°56' E 017°07'0 0.0
2017-Nov-11 07:00N 68°56' E 017°07'0 0.0
2017-Nov-11 06:30N 68°56' E 017°07'0 0.0
2017-Nov-11 06:00N 68°56' E 017°07'0 0.0
2017-Nov-11 05:31N 68°56' E 017°07'0 0.0
2017-Nov-11 05:00N 68°56' E 017°07'0 0.0
2017-Nov-11 04:30N 68°56' E 017°07'0 0.0
2017-Nov-11 04:00N 68°56' E 017°07'0 0.0
2017-Nov-11 03:30N 68°56' E 017°07'0 0.0
2017-Nov-11 03:00N 68°56' E 017°07'0 0.0
2017-Nov-11 02:30N 68°56' E 017°07'0 0.0
2017-Nov-11 02:00N 68°56' E 017°07'0 0.0
2017-Nov-11 01:30N 68°56' E 017°07'0 0.0
2017-Nov-11 01:00N 68°56' E 017°07'0 0.0
2017-Nov-11 00:30N 68°56' E 017°07'0 0.0
2017-Nov-11 00:00N 68°56' E 017°07'0 0.0
2017-Nov-10 23:30N 68°56' E 017°07'0 0.0
2017-Nov-10 23:00N 68°56' E 017°07'0 0.0
2017-Nov-10 22:31N 68°56' E 017°07'0 0.0
2017-Nov-10 22:00N 68°56' E 017°07'0 0.0
2017-Nov-10 21:30N 68°56' E 017°07'0 0.0
2017-Nov-10 21:00N 68°56' E 017°07'0 0.0
2017-Nov-10 20:30N 68°56' E 017°07'0 0.0
2017-Nov-10 20:00N 68°56' E 017°07'0 0.0
2017-Nov-10 19:31N 68°56' E 017°07'0 0.0
2017-Nov-10 18:59N 68°56' E 017°07'0 0.0
2017-Nov-10 18:30N 68°56' E 017°07'0 0.0
2017-Nov-10 18:00N 68°56' E 017°07'0 0.0
2017-Nov-10 17:30N 68°56' E 017°07'0 0.0
2017-Nov-10 17:00N 68°56' E 017°07'0 0.0
2017-Nov-10 16:30N 68°56' E 017°07'0 0.0
2017-Nov-10 16:00N 68°56' E 017°07'3 6.3
2017-Nov-10 15:30N 68°52' E 017°06'713.4
2017-Nov-10 15:00N 68°46' E 017°13'6 8.7
2017-Nov-10 14:21N 68°43' E 017°26'2 5.5
2017-Nov-10 14:00N 68°44' E 017°21'0 0.0
2017-Nov-10 13:29N 68°44' E 017°21'0 0.0
2017-Nov-10 13:00N 68°44' E 017°21'2 2.3
2017-Nov-10 12:07N 68°43' E 017°26'1 9.6
2017-Nov-10 12:00N 68°44' E 017°24'1 2.3
2017-Nov-10 11:28N 68°44' E 017°21'0 0.0
2017-Nov-10 11:00N 68°44' E 017°21'0 0.0
2017-Nov-10 10:30N 68°44' E 017°21'0 0.1
2017-Nov-10 10:00N 68°44' E 017°21'0 0.0
2017-Nov-10 09:30N 68°44' E 017°21'0 0.0
2017-Nov-10 09:00N 68°44' E 017°21'0 0.0
2017-Nov-10 08:30N 68°44' E 017°21'2 3.8
2017-Nov-10 07:59N 68°43' E 017°26'1 3.1
2017-Nov-10 07:30N 68°44' E 017°23'611.9
2017-Nov-10 07:00N 68°48' E 017°11'612.7
2017-Nov-10 06:30N 68°54' E 017°06'2 3.4
2017-Nov-10 06:00N 68°55' E 017°07'0 0.1
2017-Nov-10 05:30N 68°56' E 017°07'0 0.0
2017-Nov-10 05:00N 68°56' E 017°07'0 0.0
2017-Nov-10 04:30N 68°56' E 017°07'0 0.0
2017-Nov-10 04:00N 68°56' E 017°07'0 0.0
2017-Nov-10 03:30N 68°56' E 017°07'0 0.0
2017-Nov-10 03:00N 68°56' E 017°07'0 0.0
2017-Nov-10 02:30N 68°56' E 017°07'0 0.0
2017-Nov-10 02:00N 68°56' E 017°07'0 0.0
2017-Nov-10 01:29N 68°56' E 017°07'0 0.0
2017-Nov-10 01:00N 68°56' E 017°07'0 0.0
2017-Nov-10 00:30N 68°56' E 017°07'0 0.0
2017-Nov-10 00:00N 68°56' E 017°07'0 0.0
2017-Nov-09 23:30N 68°56' E 017°07'0 0.0
2017-Nov-09 23:00N 68°56' E 017°07'0 0.0
2017-Nov-09 22:29N 68°56' E 017°07'0 0.0
2017-Nov-09 22:00N 68°56' E 017°07'0 0.0
2017-Nov-09 21:30N 68°56' E 017°07'0 0.0
2017-Nov-09 20:59N 68°56' E 017°07'0 0.0
2017-Nov-09 20:30N 68°56' E 017°07'0 0.0
2017-Nov-09 20:00N 68°56' E 017°07'0 0.0
2017-Nov-09 19:29N 68°56' E 017°07'0 0.0
2017-Nov-09 19:00N 68°56' E 017°07'0 0.0
2017-Nov-09 18:30N 68°56' E 017°07'0 0.0
2017-Nov-09 18:00N 68°56' E 017°07'0 0.0
2017-Nov-09 17:30N 68°56' E 017°07'0 0.0
2017-Nov-09 17:00N 68°56' E 017°07'0 0.0
2017-Nov-09 16:29N 68°56' E 017°07'0 0.0
2017-Nov-09 16:00N 68°56' E 017°07'3 6.6
2017-Nov-09 15:30N 68°52' E 017°07'714.5
2017-Nov-09 15:00N 68°45' E 017°14'5 5.9
2017-Nov-09 14:09N 68°43' E 017°26'1 8.3
2017-Nov-09 13:59N 68°44' E 017°23'1 1.9
2017-Nov-09 13:30N 68°44' E 017°21'0 0.0
2017-Nov-09 13:00N 68°44' E 017°21'0 0.0
2017-Nov-09 12:30N 68°44' E 017°21'0 0.0
2017-Nov-09 11:59N 68°44' E 017°21'0 0.0
2017-Nov-09 11:30N 68°44' E 017°21'0 0.3
2017-Nov-09 11:00N 68°44' E 017°20'0 0.0
2017-Nov-09 10:30N 68°44' E 017°20'0 0.2
2017-Nov-09 10:00N 68°44' E 017°21'0 0.0
2017-Nov-09 09:30N 68°44' E 017°21'0 0.0
2017-Nov-09 09:00N 68°44' E 017°21'0 0.2
2017-Nov-09 08:30N 68°44' E 017°20'0 0.0
2017-Nov-09 07:59N 68°44' E 017°20'0 0.1
2017-Nov-09 07:29N 68°44' E 017°20'612.0
2017-Nov-09 07:00N 68°48' E 017°10'612.3
2017-Nov-09 06:29N 68°54' E 017°05'2 3.2
2017-Nov-09 06:00N 68°56' E 017°07'0 0.0
2017-Nov-09 05:30N 68°56' E 017°07'0 0.0
2017-Nov-09 04:59N 68°56' E 017°07'0 0.0
2017-Nov-09 04:30N 68°56' E 017°07'0 0.0
2017-Nov-09 04:00N 68°56' E 017°07'0 0.0
2017-Nov-09 03:30N 68°56' E 017°07'0 0.0
2017-Nov-09 02:59N 68°56' E 017°07'0 0.0
2017-Nov-09 02:30N 68°56' E 017°07'0 0.0
2017-Nov-09 02:00N 68°56' E 017°07'0 0.0
2017-Nov-09 01:29N 68°56' E 017°07'0 0.0
2017-Nov-09 01:00N 68°56' E 017°07'0 0.0
2017-Nov-09 00:30N 68°56' E 017°07'0 0.0
2017-Nov-09 00:00N 68°56' E 017°07'0 0.0
2017-Nov-08 23:30N 68°56' E 017°07'0 0.0
2017-Nov-08 23:00N 68°56' E 017°07'0 0.0
2017-Nov-08 22:30N 68°56' E 017°07'0 0.0
2017-Nov-08 22:00N 68°56' E 017°07'0 0.0
2017-Nov-08 21:30N 68°56' E 017°07'0 0.0
2017-Nov-08 21:00N 68°56' E 017°07'0 0.0
2017-Nov-08 20:30N 68°56' E 017°07'0 0.0
2017-Nov-08 19:59N 68°56' E 017°07'0 0.0
2017-Nov-08 19:30N 68°56' E 017°07'0 0.0
2017-Nov-08 19:00N 68°56' E 017°07'0 0.0
2017-Nov-08 18:30N 68°56' E 017°07'0 0.0
2017-Nov-08 18:00N 68°56' E 017°07'0 0.0
2017-Nov-08 17:30N 68°56' E 017°07'0 0.0
2017-Nov-08 17:00N 68°56' E 017°07'0 0.0
2017-Nov-08 16:29N 68°56' E 017°07'0 0.0
2017-Nov-08 16:00N 68°56' E 017°07'0 0.0
2017-Nov-08 15:29N 68°56' E 017°07'2 3.2
2017-Nov-08 15:00N 68°54' E 017°05'713.9
2017-Nov-08 14:30N 68°47' E 017°11'5 7.4
2017-Nov-08 13:49N 68°44' E 017°21'0 0.0
2017-Nov-08 13:30N 68°44' E 017°21'0 0.0
2017-Nov-08 12:36N 68°44' E 017°21'0 0.0
2017-Nov-08 12:30N 68°44' E 017°21'0 0.0
2017-Nov-08 11:49N 68°44' E 017°21'0 0.0
2017-Nov-08 09:04N 68°44' E 017°21'0 0.0
2017-Nov-08 09:00N 68°44' E 017°21'0 0.0
2017-Nov-08 08:30N 68°44' E 017°21'0 0.6
2017-Nov-08 08:00N 68°43' E 017°20'0 0.0
2017-Nov-08 07:30N 68°43' E 017°20'510.1
2017-Nov-08 07:00N 68°47' E 017°11'612.5
2017-Nov-08 06:30N 68°53' E 017°06'2 4.9
2017-Nov-08 06:00N 68°56' E 017°07'0 0.0
2017-Nov-08 05:30N 68°56' E 017°07'0 0.0
2017-Nov-08 05:00N 68°56' E 017°07'0 0.0
2017-Nov-08 04:30N 68°56' E 017°07'0 0.0
2017-Nov-08 04:00N 68°56' E 017°07'0 0.0
2017-Nov-08 03:30N 68°56' E 017°07'0 0.0
2017-Nov-08 03:00N 68°56' E 017°07'0 0.0
2017-Nov-08 02:30N 68°56' E 017°07'0 0.0
2017-Nov-08 02:00N 68°56' E 017°07'0 0.0
2017-Nov-08 01:30N 68°56' E 017°07'0 0.0
2017-Nov-08 01:00N 68°56' E 017°07'0 0.0
2017-Nov-08 00:30N 68°56' E 017°07'0 0.0
2017-Nov-08 00:00N 68°56' E 017°07'0 0.0
2017-Nov-07 22:40N 68°56' E 017°07'0 0.0
2017-Nov-07 22:30N 68°56' E 017°07'0 0.0
2017-Nov-07 22:00N 68°56' E 017°07'0 0.0
2017-Nov-07 21:30N 68°56' E 017°07'0 0.0
2017-Nov-07 21:00N 68°56' E 017°07'0 0.0
2017-Nov-07 20:30N 68°56' E 017°07'0 0.0
2017-Nov-07 19:59N 68°56' E 017°07'0 0.0
2017-Nov-07 19:29N 68°56' E 017°07'0 0.0
2017-Nov-07 19:00N 68°56' E 017°07'0 0.0
2017-Nov-07 18:30N 68°56' E 017°07'0 0.0
2017-Nov-07 18:00N 68°56' E 017°07'0 0.0
2017-Nov-07 17:30N 68°56' E 017°07'0 0.0
2017-Nov-07 17:00N 68°56' E 017°07'4 8.6
2017-Nov-07 16:29N 68°51' E 017°07'613.1
2017-Nov-07 16:00N 68°45' E 017°15'3 5.5
2017-Nov-07 15:30N 68°44' E 017°20'0 0.3
2017-Nov-07 14:59N 68°44' E 017°21'0 0.0
2017-Nov-07 14:30N 68°44' E 017°21'0 0.0
2017-Nov-07 14:00N 68°44' E 017°21'0 0.0
2017-Nov-07 13:29N 68°44' E 017°21'0 0.0
2017-Nov-07 13:00N 68°44' E 017°21'0 0.2
2017-Nov-07 12:30N 68°44' E 017°21'611.2
2017-Nov-07 12:00N 68°48' E 017°10'612.2
2017-Nov-07 11:30N 68°54' E 017°06'2 4.1
2017-Nov-07 11:00N 68°56' E 017°07'0 0.0
2017-Nov-07 10:29N 68°56' E 017°07'611.2
2017-Nov-07 10:00N 68°53' E 016°54'714.9
2017-Nov-07 09:30N 68°49' E 016°36'2 4.6
2017-Nov-07 09:00N 68°47' E 016°33'0 0.0
2017-Nov-07 08:30N 68°47' E 016°33'0 0.0
2017-Nov-07 08:00N 68°47' E 016°33'0 0.0
2017-Nov-07 07:30N 68°47' E 016°33'0 0.0
2017-Nov-07 07:00N 68°47' E 016°33'0 0.0
2017-Nov-07 06:30N 68°47' E 016°33'0 0.0
2017-Nov-07 06:00N 68°47' E 016°33'0 0.0
2017-Nov-07 05:30N 68°47' E 016°33'0 0.0
2017-Nov-07 05:00N 68°47' E 016°33'0 0.0
2017-Nov-07 04:30N 68°47' E 016°33'0 0.0
2017-Nov-07 04:00N 68°47' E 016°33'0 0.0
2017-Nov-07 03:29N 68°47' E 016°33'0 0.0
2017-Nov-07 03:00N 68°47' E 016°33'0 0.0
2017-Nov-07 02:30N 68°47' E 016°33'0 0.0
2017-Nov-07 02:00N 68°47' E 016°33'0 0.0
2017-Nov-07 01:30N 68°47' E 016°33'0 0.0
2017-Nov-07 01:00N 68°47' E 016°33'0 0.0
2017-Nov-07 00:30N 68°47' E 016°33'0 0.0
2017-Nov-07 00:00N 68°47' E 016°33'0 0.0
2017-Nov-06 23:30N 68°47' E 016°33'0 0.0
2017-Nov-06 23:00N 68°47' E 016°33'0 0.0
2017-Nov-06 22:30N 68°47' E 016°33'0 0.0
2017-Nov-06 22:00N 68°47' E 016°33'0 0.0
2017-Nov-06 21:30N 68°47' E 016°33'0 0.0
2017-Nov-06 21:00N 68°47' E 016°33'0 0.0
2017-Nov-06 20:30N 68°47' E 016°33'  

Dump ship's entire track history